createdAt,value
2023-05-01T00:00:44.238Z,9.15
2023-05-01T00:03:46.079Z,9.55
2023-05-01T00:06:48.051Z,10.02
2023-05-01T00:09:51.185Z,9.55
2023-05-01T00:12:53.017Z,11.33
2023-05-01T00:15:55.771Z,10.25
2023-05-01T00:18:57.368Z,9.50
2023-05-01T00:21:59.030Z,9.10
2023-05-01T00:25:01.163Z,9.73
2023-05-01T00:28:03.208Z,9.20
2023-05-01T00:31:04.931Z,8.70
2023-05-01T00:34:06.725Z,8.38
2023-05-01T00:37:08.382Z,9.05
2023-05-01T00:40:10.242Z,8.25
2023-05-01T00:43:13.910Z,9.37
2023-05-01T00:46:15.751Z,8.68
2023-05-01T00:49:18.069Z,8.27
2023-05-01T00:52:19.704Z,8.88
2023-05-01T00:55:22.178Z,8.13
2023-05-01T00:58:23.808Z,7.97
2023-05-01T01:01:25.469Z,9.48
2023-05-01T01:04:31.422Z,7.40
2023-05-01T01:07:45.937Z,8.68
2023-05-01T01:10:57.062Z,7.35
2023-05-01T01:14:03.923Z,10.57
2023-05-01T01:17:13.980Z,10.30
2023-05-01T01:20:38.218Z,14.15
2023-05-01T01:23:59.196Z,13.25
2023-05-01T01:27:19.247Z,11.27
2023-05-01T01:30:39.831Z,10.57
2023-05-01T01:34:11.956Z,15.95
2023-05-01T01:37:42.045Z,15.25
2023-05-01T01:40:53.835Z,12.13
2023-05-01T01:44:06.535Z,11.90
2023-05-01T01:47:12.267Z,9.07
2023-05-01T01:50:15.183Z,10.23
2023-05-01T01:53:19.683Z,10.82
2023-05-01T01:56:22.950Z,10.68
2023-05-01T01:59:26.286Z,9.30
2023-05-01T02:02:31.356Z,7.63
2023-05-01T02:05:34.372Z,11.18
2023-05-01T02:08:37.832Z,8.60
2023-05-01T02:11:41.485Z,9.95
2023-05-01T02:14:45.120Z,10.05
2023-05-01T02:17:48.699Z,9.73
2023-05-01T02:20:51.828Z,7.95
2023-05-01T02:23:54.840Z,9.60
2023-05-01T02:27:21.393Z,8.00
2023-05-01T02:30:23.033Z,7.63
2023-05-01T02:33:24.597Z,7.57
2023-05-01T02:36:27.917Z,8.18
2023-05-01T02:39:29.627Z,8.43
2023-05-01T02:42:33.211Z,11.18
2023-05-01T02:45:36.829Z,9.68
2023-05-01T02:48:38.956Z,8.73
2023-05-01T02:51:41.368Z,8.45
2023-05-01T02:54:45.432Z,8.82
2023-05-01T02:57:47.220Z,8.88
2023-05-01T03:00:50.110Z,8.60
2023-05-01T03:03:52.282Z,10.57
2023-05-01T03:06:54.444Z,8.27
2023-05-01T03:09:56.269Z,9.15
2023-05-01T03:12:58.122Z,7.60
2023-05-01T03:15:59.815Z,9.27
2023-05-01T03:19:01.473Z,7.97
2023-05-01T03:22:04.096Z,7.72
2023-05-01T03:25:06.246Z,8.05
2023-05-01T03:28:07.904Z,7.85
2023-05-01T03:31:09.888Z,7.47
2023-05-01T03:34:11.471Z,7.13
2023-05-01T03:37:13.148Z,7.55
2023-05-01T03:40:15.034Z,10.13
2023-05-01T03:43:16.681Z,7.40
2023-05-01T03:46:18.767Z,8.63
2023-05-01T03:49:20.672Z,8.17
2023-05-01T03:52:22.338Z,7.63
2023-05-01T03:55:23.969Z,8.32
2023-05-01T03:58:25.586Z,9.05
2023-05-01T04:01:27.277Z,8.82
2023-05-01T04:04:29.740Z,7.87
2023-05-01T04:07:31.710Z,8.10
2023-05-01T04:10:33.398Z,8.55
2023-05-01T04:13:35.113Z,8.32
2023-05-01T04:16:36.943Z,9.35
2023-05-01T04:19:38.759Z,7.77
2023-05-01T04:22:40.504Z,7.70
2023-05-01T04:25:42.168Z,8.55
2023-05-01T04:28:44.435Z,8.38
2023-05-01T04:31:46.140Z,8.50
2023-05-01T04:34:47.956Z,8.23
2023-05-01T04:37:49.563Z,8.05
2023-05-01T04:40:52.431Z,8.82
2023-05-01T04:43:54.028Z,8.73
2023-05-01T04:46:55.767Z,9.77
2023-05-01T04:49:58.127Z,8.60
2023-05-01T04:52:59.930Z,10.35
2023-05-01T04:56:01.575Z,10.13
2023-05-01T04:59:03.202Z,9.43
2023-05-01T05:02:05.532Z,9.50
2023-05-01T05:05:07.529Z,9.17
2023-05-01T05:08:09.429Z,9.30
2023-05-01T05:11:11.176Z,8.82
2023-05-01T05:14:12.774Z,8.32
2023-05-01T05:17:14.385Z,8.55
2023-05-01T05:20:16.067Z,8.77
2023-05-01T05:23:17.693Z,8.10
2023-05-01T05:26:19.393Z,9.35
2023-05-01T05:29:21.579Z,8.45
2023-05-01T05:32:23.912Z,10.60
2023-05-01T05:35:25.644Z,8.77
2023-05-01T05:38:27.459Z,9.23
2023-05-01T05:41:29.072Z,7.63
2023-05-01T05:44:33.040Z,7.68
2023-05-01T05:47:34.703Z,7.32
2023-05-01T05:50:36.523Z,6.83
2023-05-01T05:53:38.375Z,9.23
2023-05-01T05:56:39.967Z,6.50
2023-05-01T05:59:41.575Z,6.63
2023-05-01T06:02:43.382Z,6.50
2023-05-01T06:05:45.635Z,6.93
2023-05-01T06:08:47.262Z,8.82
2023-05-01T06:11:48.950Z,8.75
2023-05-01T06:14:50.681Z,6.50
2023-05-01T06:17:52.406Z,6.60
2023-05-01T06:20:54.474Z,7.47
2023-05-01T06:23:56.102Z,9.68
2023-05-01T06:26:58.676Z,5.80
2023-05-01T06:30:01.297Z,6.00
2023-05-01T06:33:03.101Z,6.28
2023-05-01T06:36:05.099Z,6.53
2023-05-01T06:39:06.715Z,6.68
2023-05-01T06:42:08.331Z,6.13
2023-05-01T06:45:10.080Z,6.00
2023-05-01T06:48:12.231Z,5.95
2023-05-01T06:51:16.034Z,7.57
2023-05-01T06:54:17.724Z,7.05
2023-05-01T06:57:19.385Z,6.25
2023-05-01T07:00:21.214Z,6.32
2023-05-01T07:03:23.291Z,7.43
2023-05-01T07:06:25.123Z,6.83
2023-05-01T07:09:26.775Z,6.55
2023-05-01T07:12:29.703Z,7.07
2023-05-01T07:15:31.416Z,6.55
2023-05-01T07:18:33.051Z,6.47
2023-05-01T07:21:34.758Z,6.10
2023-05-01T07:24:36.477Z,6.95
2023-05-01T07:27:38.098Z,7.05
2023-05-01T07:30:39.970Z,6.70
2023-05-01T07:33:42.413Z,6.15
2023-05-01T07:36:45.342Z,7.83
2023-05-01T07:39:47.006Z,6.78
2023-05-01T07:42:48.652Z,6.97
2023-05-01T07:46:00.403Z,6.28
2023-05-01T07:49:02.286Z,5.90
2023-05-01T07:52:05.391Z,6.17
2023-05-01T07:55:07.801Z,6.80
2023-05-01T07:58:09.496Z,7.65
2023-05-01T08:01:11.204Z,5.80
2023-05-01T08:04:14.449Z,5.95
2023-05-01T08:07:16.162Z,6.70
2023-05-01T08:10:17.868Z,5.40
2023-05-01T08:13:19.500Z,6.60
2023-05-01T08:16:22.257Z,6.05
2023-05-01T08:19:24.487Z,6.10
2023-05-01T08:22:26.153Z,5.00
2023-05-01T08:25:28.038Z,5.80
2023-05-01T08:28:29.766Z,5.55
2023-05-01T08:31:31.430Z,6.63
2023-05-01T08:34:33.568Z,6.15
2023-05-01T08:37:35.383Z,5.10
2023-05-01T08:40:38.301Z,5.13
2023-05-01T08:43:40.989Z,5.35
2023-05-01T08:46:51.072Z,6.30
2023-05-01T08:49:53.124Z,5.35
2023-05-01T08:52:56.160Z,5.03
2023-05-01T08:56:00.276Z,5.22
2023-05-01T08:59:04.596Z,5.13
2023-05-01T09:02:09.159Z,5.80
2023-05-01T09:05:11.492Z,6.70
2023-05-01T09:08:13.078Z,5.33
2023-05-01T09:11:14.759Z,5.93
2023-05-01T09:14:17.358Z,6.32
2023-05-01T09:17:21.047Z,6.20
2023-05-01T09:20:23.152Z,5.55
2023-05-01T09:23:24.803Z,5.43
2023-05-01T09:26:26.847Z,5.80
2023-05-01T09:29:43.888Z,5.28
2023-05-01T09:32:45.627Z,5.00
2023-05-01T09:35:54.360Z,5.63
2023-05-01T09:38:56.354Z,5.10
2023-05-01T09:41:58.167Z,5.22
2023-05-01T09:45:01.805Z,5.63
2023-05-01T09:48:11.296Z,6.30
2023-05-01T09:51:33.106Z,5.43
2023-05-01T09:54:34.768Z,4.80
2023-05-01T09:57:38.300Z,5.93
2023-05-01T10:00:49.661Z,5.70
2023-05-01T10:03:55.686Z,6.45
2023-05-01T10:06:57.902Z,5.43
2023-05-01T10:10:01.411Z,5.20
2023-05-01T10:13:14.865Z,5.03
2023-05-01T10:16:29.008Z,5.60
2023-05-01T10:19:31.300Z,5.65
2023-05-01T10:22:33.034Z,5.28
2023-05-01T10:25:36.744Z,5.57
2023-05-01T10:28:38.755Z,5.93
2023-05-01T10:31:42.448Z,5.15
2023-05-01T10:34:52.430Z,5.50
2023-05-01T10:38:06.567Z,5.97
2023-05-01T10:41:09.242Z,6.87
2023-05-01T10:44:21.493Z,5.57
2023-05-01T10:47:30.679Z,5.55
2023-05-01T10:50:32.924Z,5.95
2023-05-01T10:53:34.539Z,6.00
2023-05-01T10:56:42.885Z,4.90
2023-05-01T11:00:00.266Z,5.63
2023-05-01T11:03:24.410Z,5.10
2023-05-01T11:06:27.153Z,5.63
2023-05-01T11:09:51.170Z,5.32
2023-05-01T11:12:53.038Z,5.60
2023-05-01T11:15:54.760Z,5.75
2023-05-01T11:18:57.424Z,6.05
2023-05-01T11:22:00.623Z,4.63
2023-05-01T11:25:06.189Z,9.88
2023-05-01T11:28:09.672Z,5.93
2023-05-01T11:31:18.480Z,6.40
2023-05-01T11:34:21.323Z,4.75
2023-05-01T11:37:45.001Z,4.40
2023-05-01T11:40:55.465Z,4.78
2023-05-01T11:44:00.343Z,5.10
2023-05-01T11:47:02.347Z,4.68
2023-05-01T11:50:04.566Z,4.75
2023-05-01T11:53:12.867Z,6.78
2023-05-01T11:56:26.563Z,5.53
2023-05-01T11:59:30.600Z,5.90
2023-05-01T12:02:32.518Z,4.90
2023-05-01T12:05:37.242Z,4.80
2023-05-01T12:08:45.243Z,4.45
2023-05-01T12:11:51.189Z,6.20
2023-05-01T12:14:54.114Z,5.07
2023-05-01T12:17:57.263Z,4.35
2023-05-01T12:20:58.984Z,5.20
2023-05-01T12:24:16.965Z,5.97
2023-05-01T12:27:19.827Z,4.45
2023-05-01T12:30:26.780Z,5.23
2023-05-01T12:33:28.524Z,4.25
2023-05-01T12:36:32.348Z,4.70
2023-05-01T12:39:39.093Z,4.50
2023-05-01T12:42:42.188Z,4.18
2023-05-01T12:45:43.895Z,7.30
2023-05-01T12:48:45.977Z,5.28
2023-05-01T12:51:52.589Z,4.90
2023-05-01T12:55:02.845Z,4.40
2023-05-01T12:58:05.516Z,4.80
2023-05-01T13:01:07.187Z,4.67
2023-05-01T13:04:08.949Z,6.03
2023-05-01T13:07:16.585Z,4.28
2023-05-01T13:10:30.610Z,5.57
2023-05-01T13:13:34.861Z,4.90
2023-05-01T13:16:48.470Z,4.57
2023-05-01T13:19:57.326Z,4.15
2023-05-01T13:22:59.253Z,4.82
2023-05-01T13:26:01.031Z,4.05
2023-05-01T13:29:05.885Z,4.50
2023-05-01T13:32:10.847Z,4.90
2023-05-01T13:35:12.779Z,5.22
2023-05-01T13:38:15.958Z,4.88
2023-05-01T13:41:21.942Z,4.75
2023-05-01T13:44:23.662Z,5.75
2023-05-01T13:47:26.902Z,4.43
2023-05-01T13:50:28.675Z,4.22
2023-05-01T13:53:30.569Z,4.45
2023-05-01T13:56:32.433Z,4.55
2023-05-01T13:59:39.814Z,4.15
2023-05-01T14:02:44.654Z,4.57
2023-05-01T14:05:47.686Z,4.13
2023-05-01T14:08:54.424Z,5.18
2023-05-01T14:11:56.304Z,3.95
2023-05-01T14:15:00.142Z,3.97
2023-05-01T14:18:08.539Z,4.13
2023-05-01T14:21:10.173Z,3.67
2023-05-01T14:24:12.428Z,3.35
2023-05-01T14:27:17.221Z,4.25
2023-05-01T14:30:27.096Z,4.22
2023-05-01T14:33:28.738Z,3.53
2023-05-01T14:36:33.966Z,3.80
2023-05-01T14:39:36.023Z,5.72
2023-05-01T14:42:44.059Z,4.25
2023-05-01T14:45:46.780Z,5.07
2023-05-01T14:48:48.439Z,3.87
2023-05-01T14:51:50.651Z,3.42
2023-05-01T14:54:53.243Z,3.63
2023-05-01T14:57:55.968Z,4.82
2023-05-01T15:00:57.606Z,4.28
2023-05-01T15:04:02.602Z,6.13
2023-05-01T15:07:05.164Z,4.78
2023-05-01T15:10:07.365Z,5.28
2023-05-01T15:13:09.372Z,3.90
2023-05-01T15:16:11.199Z,5.90
2023-05-01T15:19:12.821Z,5.87
2023-05-01T15:22:14.436Z,4.43
2023-05-01T15:25:16.531Z,5.15
2023-05-01T15:28:18.286Z,3.65
2023-05-01T15:31:20.083Z,3.47
2023-05-01T15:34:21.770Z,2.63
2023-05-01T15:37:24.085Z,3.35
2023-05-01T15:40:25.670Z,5.70
2023-05-01T15:43:27.368Z,5.57
2023-05-01T15:46:29.197Z,5.15
2023-05-01T15:49:31.218Z,3.47
2023-05-01T15:52:32.946Z,3.38
2023-05-01T15:55:34.863Z,6.38
2023-05-01T15:58:36.582Z,3.58
2023-05-01T16:01:38.286Z,4.40
2023-05-01T16:04:40.056Z,3.57
2023-05-01T16:07:41.658Z,5.03
2023-05-01T16:10:43.326Z,3.75
2023-05-01T16:13:45.394Z,3.78
2023-05-01T16:16:47.208Z,3.75
2023-05-01T16:19:49.504Z,4.30
2023-05-01T16:22:52.044Z,4.28
2023-05-01T16:25:53.820Z,4.80
2023-05-01T16:29:06.254Z,4.13
2023-05-01T16:32:11.306Z,3.75
2023-05-01T16:35:26.194Z,3.87
2023-05-01T16:38:28.132Z,2.85
2023-05-01T16:41:29.850Z,3.88
2023-05-01T16:44:31.543Z,5.65
2023-05-01T16:47:33.753Z,4.38
2023-05-01T16:50:41.720Z,4.10
2023-05-01T16:53:43.291Z,3.42
2023-05-01T16:56:45.233Z,4.35
2023-05-01T16:59:46.929Z,3.78
2023-05-01T17:02:53.522Z,3.78
2023-05-01T17:05:55.685Z,4.30
2023-05-01T17:08:57.327Z,4.10
2023-05-01T17:11:59.172Z,4.35
2023-05-01T17:15:00.821Z,4.60
2023-05-01T17:18:02.494Z,4.50
2023-05-01T17:21:04.274Z,3.73
2023-05-01T17:24:06.134Z,3.67
2023-05-01T17:27:08.183Z,4.25
2023-05-01T17:30:10.122Z,4.28
2023-05-01T17:33:11.891Z,3.13
2023-05-01T17:36:13.493Z,3.57
2023-05-01T17:39:15.124Z,3.50
2023-05-01T17:42:16.712Z,4.10
2023-05-01T17:45:18.328Z,4.32
2023-05-01T17:48:19.984Z,4.47
2023-05-01T17:51:21.737Z,3.43
2023-05-01T17:54:23.349Z,5.13
2023-05-01T17:57:25.048Z,3.90
2023-05-01T18:00:27.669Z,4.10
2023-05-01T18:03:30.148Z,4.60
2023-05-01T18:06:32.064Z,4.10
2023-05-01T18:09:33.694Z,3.42
2023-05-01T18:12:35.444Z,3.90
2023-05-01T18:15:37.095Z,3.25
2023-05-01T18:18:38.766Z,3.15
2023-05-01T18:21:40.415Z,6.00
2023-05-01T18:24:42.485Z,3.38
2023-05-01T18:27:45.419Z,3.25
2023-05-01T18:30:47.024Z,4.63
2023-05-01T18:33:48.669Z,2.80
2023-05-01T18:36:52.306Z,3.63
2023-05-01T18:39:55.271Z,4.35
2023-05-01T18:42:57.062Z,4.43
2023-05-01T18:45:59.022Z,3.85
2023-05-01T18:49:01.393Z,5.65
2023-05-01T18:52:03.515Z,3.80
2023-05-01T18:55:05.622Z,6.15
2023-05-01T18:58:07.643Z,4.15
2023-05-01T19:01:10.315Z,3.45
2023-05-01T19:04:11.990Z,4.10
2023-05-01T19:07:13.720Z,3.73
2023-05-01T19:10:15.407Z,4.13
2023-05-01T19:13:17.091Z,4.35
2023-05-01T19:16:18.695Z,4.15
2023-05-01T19:19:20.472Z,3.28
2023-05-01T19:22:22.181Z,3.73
2023-05-01T19:25:24.345Z,4.93
2023-05-01T19:28:25.942Z,4.75
2023-05-01T19:31:27.570Z,4.45
2023-05-01T19:34:29.265Z,4.55
2023-05-01T19:37:31.046Z,3.43
2023-05-01T19:40:32.673Z,4.03
2023-05-01T19:43:34.364Z,5.00
2023-05-01T19:46:36.472Z,4.47
2023-05-01T19:49:38.952Z,3.75
2023-05-01T19:52:40.750Z,6.10
2023-05-01T19:55:42.390Z,4.32
2023-05-01T19:58:44.155Z,5.95
2023-05-01T20:01:46.105Z,4.18
2023-05-01T20:04:48.082Z,3.47
2023-05-01T20:07:49.970Z,5.73
2023-05-01T20:10:51.692Z,3.03
2023-05-01T20:13:53.459Z,4.80
2023-05-01T20:16:55.210Z,3.67
2023-05-01T20:19:57.177Z,3.70
2023-05-01T20:23:15.184Z,3.70
2023-05-01T20:26:17.697Z,3.70
2023-05-01T20:29:19.952Z,5.30
2023-05-01T20:32:21.524Z,4.57
2023-05-01T20:35:23.192Z,3.58
2023-05-01T20:38:24.845Z,4.73
2023-05-01T20:41:27.932Z,3.65
2023-05-01T20:44:29.597Z,4.63
2023-05-01T20:47:32.328Z,4.80
2023-05-01T20:50:34.628Z,6.53
2023-05-01T20:53:36.207Z,3.77
2023-05-01T20:56:38.482Z,4.88
2023-05-01T20:59:40.115Z,4.07
2023-05-01T21:02:42.126Z,4.18
2023-05-01T21:05:43.801Z,5.95
2023-05-01T21:08:46.238Z,6.67
2023-05-01T21:11:47.933Z,4.55
2023-05-01T21:14:49.595Z,4.50
2023-05-01T21:17:51.295Z,5.05
2023-05-01T21:20:53.119Z,4.38
2023-05-01T21:23:54.848Z,3.90
2023-05-01T21:26:56.585Z,6.47
2023-05-01T21:30:00.641Z,6.13
2023-05-01T21:33:05.599Z,3.88
2023-05-01T21:36:07.272Z,3.70
2023-05-01T21:39:08.881Z,4.80
2023-05-01T21:42:14.365Z,4.70
2023-05-01T21:45:19.031Z,4.20
2023-05-01T21:48:20.874Z,4.65
2023-05-01T21:51:28.521Z,5.47
2023-05-01T21:54:31.187Z,4.53
2023-05-01T21:57:34.530Z,3.95
2023-05-01T22:00:37.436Z,6.60
2023-05-01T22:03:41.717Z,4.50
2023-05-01T22:06:43.508Z,4.88
2023-05-01T22:09:45.291Z,4.97
2023-05-01T22:12:49.365Z,5.80
2023-05-01T22:15:51.032Z,5.28
2023-05-01T22:18:53.294Z,6.65
2023-05-01T22:21:54.880Z,5.10
2023-05-01T22:24:56.549Z,4.77
2023-05-01T22:28:00.490Z,5.80
2023-05-01T22:31:02.124Z,7.43
2023-05-01T22:34:03.702Z,5.40
2023-05-01T22:37:05.405Z,5.15
2023-05-01T22:40:07.703Z,6.60
2023-05-01T22:43:09.392Z,6.32
2023-05-01T22:46:11.294Z,5.93
2023-05-01T22:49:13.034Z,5.63
2023-05-01T22:52:15.458Z,6.18
2023-05-01T22:55:17.117Z,5.77
2023-05-01T22:58:18.892Z,5.40
2023-05-01T23:01:20.568Z,5.95
2023-05-01T23:04:22.198Z,6.55
2023-05-01T23:07:23.903Z,6.97
2023-05-01T23:10:28.447Z,4.17
2023-05-01T23:13:32.234Z,4.35
2023-05-01T23:16:41.644Z,5.90
2023-05-01T23:19:44.518Z,5.57
2023-05-01T23:22:47.424Z,5.20
2023-05-01T23:25:50.632Z,5.57
2023-05-01T23:28:53.271Z,5.38
2023-05-01T23:31:55.611Z,4.45
2023-05-01T23:35:18.570Z,4.60
2023-05-01T23:38:20.209Z,5.72
2023-05-01T23:41:23.599Z,6.90
2023-05-01T23:44:25.273Z,3.95
2023-05-01T23:47:27.404Z,4.75
2023-05-01T23:50:29.536Z,4.68
2023-05-01T23:53:31.602Z,4.63
2023-05-01T23:56:33.239Z,5.23
2023-05-01T23:59:35.456Z,4.97
